createdAt,value
2019-03-03T00:00:09.413Z,8.37
2019-03-03T00:02:36.939Z,6.97
2019-03-03T00:05:04.850Z,11.87
2019-03-03T00:07:41.635Z,7.73
2019-03-03T00:10:09.276Z,12.33
2019-03-03T00:12:36.867Z,10.13
2019-03-03T00:15:04.943Z,7.87
2019-03-03T00:17:37.891Z,11.80
2019-03-03T00:20:05.852Z,11.10
2019-03-03T00:22:33.444Z,11.50
2019-03-03T00:25:01.006Z,14.10
2019-03-03T00:27:36.728Z,12.57
2019-03-03T00:30:04.997Z,11.37
2019-03-03T00:32:32.570Z,9.03
2019-03-03T00:35:00.327Z,10.20
2019-03-03T00:37:46.208Z,10.53
2019-03-03T00:40:26.323Z,10.00
2019-03-03T00:42:59.849Z,11.47
2019-03-03T00:45:50.035Z,8.70
2019-03-03T00:48:30.006Z,8.50
2019-03-03T00:51:09.409Z,8.10
2019-03-03T00:53:46.095Z,14.07
2019-03-03T00:56:28.003Z,9.97
2019-03-03T00:59:05.169Z,9.03
2019-03-03T01:01:46.791Z,10.60
2019-03-03T01:04:38.554Z,11.33
2019-03-03T01:07:26.592Z,9.90
2019-03-03T01:10:00.981Z,9.03
2019-03-03T01:12:47.981Z,11.97
2019-03-03T01:15:33.232Z,10.20
2019-03-03T01:18:24.642Z,9.40
2019-03-03T01:21:06.882Z,11.20
2019-03-03T01:23:53.982Z,12.00
2019-03-03T01:26:21.515Z,10.73
2019-03-03T01:28:49.081Z,8.73
2019-03-03T01:31:16.853Z,8.03
2019-03-03T01:33:44.402Z,9.70
2019-03-03T01:36:11.955Z,14.47
2019-03-03T01:38:39.482Z,8.93
2019-03-03T01:41:07.094Z,14.27
2019-03-03T01:43:34.629Z,9.63
2019-03-03T01:46:02.195Z,12.83
2019-03-03T01:48:29.735Z,10.93
2019-03-03T01:50:57.275Z,9.97
2019-03-03T01:53:24.822Z,10.80
2019-03-03T01:55:52.301Z,12.23
2019-03-03T01:58:19.851Z,9.47
2019-03-03T02:00:47.423Z,10.27
2019-03-03T02:03:14.952Z,16.17
2019-03-03T02:05:42.560Z,11.43
2019-03-03T02:08:10.086Z,13.37
2019-03-03T02:10:37.663Z,12.60
2019-03-03T02:13:05.163Z,11.07
2019-03-03T02:15:32.759Z,12.13
2019-03-03T02:18:00.231Z,10.17
2019-03-03T02:20:27.791Z,15.93
2019-03-03T02:22:55.346Z,11.23
2019-03-03T02:25:22.869Z,9.33
2019-03-03T02:27:50.383Z,10.30
2019-03-03T02:30:19.035Z,10.43
2019-03-03T02:32:46.733Z,13.93
2019-03-03T02:35:14.554Z,11.60
2019-03-03T02:37:45.952Z,10.07
2019-03-03T02:40:14.488Z,12.47
2019-03-03T02:42:45.170Z,10.97
2019-03-03T02:45:13.398Z,8.57
2019-03-03T02:47:41.006Z,14.73
2019-03-03T02:50:09.977Z,13.93
2019-03-03T02:52:37.531Z,12.23
2019-03-03T02:55:06.302Z,13.10
2019-03-03T02:57:33.754Z,13.17
2019-03-03T03:00:01.289Z,18.70
2019-03-03T03:02:48.568Z,16.93
2019-03-03T03:05:22.184Z,14.43
2019-03-03T03:07:59.801Z,13.90
2019-03-03T03:10:46.898Z,18.03
2019-03-03T03:13:33.964Z,14.43
2019-03-03T03:16:30.139Z,13.00
2019-03-03T03:19:15.886Z,15.87
2019-03-03T03:21:51.485Z,13.10
2019-03-03T03:24:38.411Z,16.73
2019-03-03T03:27:22.035Z,16.23
2019-03-03T03:30:17.821Z,15.67
2019-03-03T03:32:50.347Z,13.57
2019-03-03T03:35:46.331Z,12.77
2019-03-03T03:38:24.471Z,16.30
2019-03-03T03:41:09.912Z,14.93
2019-03-03T03:44:05.765Z,14.30
2019-03-03T03:46:53.888Z,17.80
2019-03-03T03:49:42.160Z,12.33
2019-03-03T03:52:27.848Z,13.93
2019-03-03T03:55:13.685Z,13.40
2019-03-03T03:57:59.343Z,15.43
2019-03-03T04:00:38.608Z,14.67
2019-03-03T04:03:28.356Z,14.23
2019-03-03T04:06:10.560Z,14.60
2019-03-03T04:08:52.393Z,14.80
2019-03-03T04:11:47.528Z,14.73
2019-03-03T04:14:33.935Z,14.90
2019-03-03T04:17:36.303Z,18.43
2019-03-03T04:20:23.284Z,18.07
2019-03-03T04:23:10.272Z,15.77
2019-03-03T04:26:12.064Z,12.60
2019-03-03T04:28:55.947Z,11.20
2019-03-03T04:31:38.501Z,11.50
2019-03-03T04:34:25.554Z,15.17
2019-03-03T04:37:13.452Z,16.53
2019-03-03T04:40:01.000Z,13.80
2019-03-03T04:42:53.836Z,14.73
2019-03-03T04:45:35.050Z,15.70
2019-03-03T04:48:09.927Z,16.33
2019-03-03T04:51:01.454Z,15.43
2019-03-03T04:53:51.344Z,15.00
2019-03-03T04:56:34.309Z,13.10
2019-03-03T04:59:27.426Z,14.80
2019-03-03T05:02:14.503Z,11.77
2019-03-03T05:05:01.575Z,11.87
2019-03-03T05:07:37.447Z,12.80
2019-03-03T05:10:11.319Z,12.27
2019-03-03T05:12:56.333Z,16.03
2019-03-03T05:15:42.146Z,14.67
2019-03-03T05:18:29.167Z,16.60
2019-03-03T05:20:56.775Z,18.63
2019-03-03T05:23:24.290Z,14.27
2019-03-03T05:25:51.880Z,14.90
2019-03-03T05:28:27.155Z,13.30
2019-03-03T05:30:54.710Z,14.10
2019-03-03T05:33:22.248Z,16.63
2019-03-03T05:35:49.797Z,15.83
2019-03-03T05:38:17.329Z,14.57
2019-03-03T05:40:44.852Z,16.77
2019-03-03T05:43:12.392Z,15.67
2019-03-03T05:45:39.914Z,16.77
2019-03-03T05:48:10.835Z,16.37
2019-03-03T05:50:38.399Z,13.63
2019-03-03T05:53:06.612Z,13.33
2019-03-03T05:55:34.104Z,15.20
2019-03-03T05:58:01.547Z,18.07
2019-03-03T06:00:29.007Z,15.73
2019-03-03T06:02:56.459Z,17.90
2019-03-03T06:05:24.030Z,14.20
2019-03-03T06:07:51.632Z,17.40
2019-03-03T06:10:21.916Z,15.33
2019-03-03T06:12:49.529Z,21.50
2019-03-03T06:15:17.087Z,17.67
2019-03-03T06:17:45.682Z,18.47
2019-03-03T06:20:13.267Z,16.07
2019-03-03T06:22:40.808Z,15.27
2019-03-03T06:25:08.638Z,21.47
2019-03-03T06:27:36.172Z,17.87
2019-03-03T06:30:05.526Z,21.33
2019-03-03T06:32:34.059Z,20.10
2019-03-03T06:35:01.690Z,18.13
2019-03-03T06:37:41.591Z,16.57
2019-03-03T06:40:09.365Z,19.30
2019-03-03T06:42:36.940Z,15.50
2019-03-03T06:45:05.155Z,21.00
2019-03-03T06:47:32.692Z,17.47
2019-03-03T06:50:00.298Z,19.33
2019-03-03T06:52:27.863Z,17.97
2019-03-03T06:54:55.391Z,17.80
2019-03-03T06:57:22.948Z,20.07
2019-03-03T06:59:50.467Z,15.70
2019-03-03T07:02:18.003Z,18.50
2019-03-03T07:04:48.322Z,21.13
2019-03-03T07:07:15.899Z,16.27
2019-03-03T07:09:43.433Z,19.70
2019-03-03T07:12:10.994Z,15.23
2019-03-03T07:14:40.305Z,16.70
2019-03-03T07:17:07.886Z,17.33
2019-03-03T07:19:35.538Z,18.67
2019-03-03T07:22:03.132Z,15.53
2019-03-03T07:24:33.718Z,16.30
2019-03-03T07:27:01.263Z,18.17
2019-03-03T07:29:28.777Z,16.37
2019-03-03T07:31:56.390Z,14.70
2019-03-03T07:34:23.878Z,15.50
2019-03-03T07:36:51.447Z,13.27
2019-03-03T07:39:19.084Z,17.63
2019-03-03T07:41:46.870Z,14.00
2019-03-03T07:44:14.430Z,15.37
2019-03-03T07:46:44.206Z,16.40
2019-03-03T07:49:11.786Z,13.90
2019-03-03T07:51:39.374Z,12.40
2019-03-03T07:54:06.918Z,13.23
2019-03-03T07:56:34.461Z,16.80
2019-03-03T07:59:02.364Z,15.17
2019-03-03T08:01:29.898Z,16.87
2019-03-03T08:03:57.437Z,17.07
2019-03-03T08:06:25.027Z,13.27
2019-03-03T08:08:56.910Z,13.53
2019-03-03T08:11:24.448Z,18.93
2019-03-03T08:13:51.963Z,19.17
2019-03-03T08:16:19.508Z,15.77
2019-03-03T08:18:47.040Z,15.60
2019-03-03T08:21:14.598Z,11.67
2019-03-03T08:23:42.112Z,15.77
2019-03-03T08:26:09.654Z,15.77
2019-03-03T08:28:37.289Z,15.30
2019-03-03T08:31:04.881Z,15.03
2019-03-03T08:33:32.432Z,12.47
2019-03-03T08:36:00.026Z,15.43
2019-03-03T08:38:27.534Z,14.80
2019-03-03T08:40:55.056Z,18.27
2019-03-03T08:43:42.287Z,11.87
2019-03-03T08:46:19.931Z,14.77
2019-03-03T08:49:10.566Z,14.53
2019-03-03T08:52:01.541Z,15.77
2019-03-03T08:54:44.553Z,15.77
2019-03-03T08:57:30.276Z,15.60
2019-03-03T09:00:14.242Z,15.33
2019-03-03T09:03:07.073Z,13.93
2019-03-03T09:05:52.584Z,17.67
2019-03-03T09:08:45.432Z,13.07
2019-03-03T09:11:32.472Z,10.83
2019-03-03T09:14:10.838Z,13.77
2019-03-03T09:16:48.425Z,14.63
2019-03-03T09:19:47.689Z,14.23
2019-03-03T09:22:28.232Z,12.40
2019-03-03T09:25:12.034Z,9.57
2019-03-03T09:27:57.164Z,10.00
2019-03-03T09:30:49.930Z,12.93
2019-03-03T09:33:49.587Z,10.50
2019-03-03T09:36:25.411Z,9.30
2019-03-03T09:39:15.398Z,10.37
2019-03-03T09:42:17.194Z,17.30
2019-03-03T09:45:16.386Z,10.47
2019-03-03T09:47:58.777Z,16.73
2019-03-03T09:50:48.568Z,13.03
2019-03-03T09:53:21.963Z,14.87
2019-03-03T09:56:14.683Z,17.13
2019-03-03T09:59:17.652Z,14.27
2019-03-03T10:02:08.122Z,12.43
2019-03-03T10:04:58.384Z,14.07
2019-03-03T10:07:54.732Z,10.67
2019-03-03T10:10:27.721Z,13.40
2019-03-03T10:13:17.912Z,17.83
2019-03-03T10:16:00.610Z,16.30
2019-03-03T10:18:40.871Z,14.60
2019-03-03T10:21:36.251Z,11.97
2019-03-03T10:24:13.873Z,14.60
2019-03-03T10:26:59.287Z,12.07
2019-03-03T10:29:37.777Z,11.60
2019-03-03T10:32:23.337Z,15.07
2019-03-03T10:35:04.221Z,11.90
2019-03-03T10:38:08.425Z,14.43
2019-03-03T10:41:04.323Z,19.40
2019-03-03T10:44:06.557Z,16.73
2019-03-03T10:46:59.117Z,19.30
2019-03-03T10:49:43.243Z,17.40
2019-03-03T10:52:20.713Z,15.03
2019-03-03T10:55:11.048Z,13.83
2019-03-03T10:58:06.909Z,15.23
2019-03-03T11:00:52.454Z,14.00
2019-03-03T11:03:27.840Z,15.87
2019-03-03T11:06:16.426Z,15.17
2019-03-03T11:09:12.950Z,14.93
2019-03-03T11:11:49.631Z,18.40
2019-03-03T11:14:41.931Z,15.27
2019-03-03T11:17:27.225Z,11.27
2019-03-03T11:20:29.372Z,16.00
2019-03-03T11:23:27.631Z,13.53
2019-03-03T11:26:26.767Z,13.77
2019-03-03T11:29:16.470Z,11.07
2019-03-03T11:32:13.897Z,11.37
2019-03-03T11:34:56.975Z,12.73
2019-03-03T11:37:45.336Z,18.57
2019-03-03T11:40:44.602Z,12.30
2019-03-03T11:43:30.145Z,15.53
2019-03-03T11:46:17.228Z,11.57
2019-03-03T11:48:54.224Z,14.10
2019-03-03T11:51:50.486Z,15.97
2019-03-03T11:54:28.236Z,13.27
2019-03-03T11:57:13.813Z,12.63
2019-03-03T11:59:59.745Z,11.67
2019-03-03T12:03:01.985Z,12.57
2019-03-03T12:05:49.523Z,15.50
2019-03-03T12:08:26.697Z,14.47
2019-03-03T12:11:22.404Z,15.53
2019-03-03T12:14:04.330Z,11.30
2019-03-03T12:16:41.082Z,12.77
2019-03-03T12:19:26.846Z,9.97
2019-03-03T12:22:13.878Z,12.57
2019-03-03T12:25:02.245Z,12.17
2019-03-03T12:27:48.020Z,10.67
2019-03-03T12:30:30.943Z,11.57
2019-03-03T12:33:05.160Z,10.83
2019-03-03T12:35:42.187Z,15.33
2019-03-03T12:38:35.142Z,11.53
2019-03-03T12:41:15.039Z,11.70
2019-03-03T12:44:14.244Z,14.30
2019-03-03T12:47:01.632Z,10.93
2019-03-03T12:49:54.318Z,14.27
2019-03-03T12:52:39.921Z,11.63
2019-03-03T12:55:12.716Z,12.80
2019-03-03T12:57:58.284Z,12.93
2019-03-03T13:00:41.210Z,15.00
2019-03-03T13:03:22.958Z,14.57
2019-03-03T13:06:12.798Z,15.57
2019-03-03T13:09:08.996Z,10.67
2019-03-03T13:11:54.459Z,17.73
2019-03-03T13:14:44.522Z,15.27
2019-03-03T13:17:37.732Z,14.13
2019-03-03T13:20:22.636Z,10.43
2019-03-03T13:23:28.022Z,12.50
2019-03-03T13:26:16.639Z,13.70
2019-03-03T13:29:15.421Z,15.43
2019-03-03T13:32:05.096Z,14.17
2019-03-03T13:34:50.856Z,15.23
2019-03-03T13:37:36.848Z,10.43
2019-03-03T13:40:17.674Z,11.83
2019-03-03T13:43:00.280Z,10.50
2019-03-03T13:45:30.367Z,14.40
2019-03-03T13:47:57.928Z,13.50
2019-03-03T13:50:25.785Z,16.97
2019-03-03T13:52:53.304Z,15.77
2019-03-03T13:55:20.966Z,15.13
2019-03-03T13:57:48.605Z,11.77
2019-03-03T14:00:19.425Z,13.90
2019-03-03T14:02:47.456Z,10.03
2019-03-03T14:05:17.224Z,14.13
2019-03-03T14:07:44.818Z,11.87
2019-03-03T14:10:13.215Z,12.10
2019-03-03T14:12:40.800Z,13.13
2019-03-03T14:15:09.751Z,12.37
2019-03-03T14:17:37.619Z,12.90
2019-03-03T14:20:07.084Z,11.10
2019-03-03T14:22:34.656Z,10.53
2019-03-03T14:25:02.217Z,13.27
2019-03-03T14:27:29.770Z,14.50
2019-03-03T14:29:57.309Z,10.03
2019-03-03T14:32:24.859Z,10.57
2019-03-03T14:34:52.421Z,15.27
2019-03-03T14:37:22.371Z,14.80
2019-03-03T14:39:50.009Z,11.93
2019-03-03T14:42:17.602Z,13.63
2019-03-03T14:44:45.173Z,13.53
2019-03-03T14:47:12.727Z,10.40
2019-03-03T14:49:40.297Z,9.50
2019-03-03T14:52:07.814Z,10.73
2019-03-03T14:54:35.399Z,11.27
2019-03-03T14:57:03.371Z,14.57
2019-03-03T14:59:30.938Z,11.63
2019-03-03T15:01:58.573Z,12.07
2019-03-03T15:04:26.123Z,11.80
2019-03-03T15:06:53.715Z,12.13
2019-03-03T15:09:22.065Z,10.97
2019-03-03T15:11:49.611Z,11.20
2019-03-03T15:14:20.024Z,15.90
2019-03-03T15:16:47.613Z,9.60
2019-03-03T15:19:15.162Z,11.63
2019-03-03T15:21:42.798Z,14.07
2019-03-03T15:24:10.352Z,11.73
2019-03-03T15:26:37.955Z,11.43
2019-03-03T15:29:06.673Z,13.13
2019-03-03T15:31:38.749Z,9.73
2019-03-03T15:34:09.853Z,12.23
2019-03-03T15:36:39.385Z,14.13
2019-03-03T15:39:08.279Z,10.83
2019-03-03T15:41:36.383Z,10.30
2019-03-03T15:44:04.274Z,9.17
2019-03-03T15:46:31.810Z,11.00
2019-03-03T15:49:16.349Z,12.63
2019-03-03T15:51:43.965Z,11.30
2019-03-03T15:54:11.666Z,10.47
2019-03-03T15:56:39.260Z,11.97
2019-03-03T15:59:07.002Z,11.13
2019-03-03T16:01:34.636Z,10.93
2019-03-03T16:04:05.051Z,13.13
2019-03-03T16:06:32.654Z,14.40
2019-03-03T16:09:05.272Z,9.60
2019-03-03T16:11:32.902Z,7.70
2019-03-03T16:14:03.144Z,14.13
2019-03-03T16:16:37.390Z,11.63
2019-03-03T16:19:05.223Z,10.10
2019-03-03T16:21:32.806Z,8.37
2019-03-03T16:24:00.443Z,7.87
2019-03-03T16:26:28.134Z,11.57
2019-03-03T16:28:57.109Z,11.53
2019-03-03T16:31:24.762Z,13.23
2019-03-03T16:33:52.856Z,11.60
2019-03-03T16:36:23.111Z,12.60
2019-03-03T16:38:52.813Z,11.07
2019-03-03T16:41:20.478Z,12.50
2019-03-03T16:43:50.453Z,8.63
2019-03-03T16:46:18.163Z,10.80
2019-03-03T16:48:45.906Z,14.00
2019-03-03T16:51:13.676Z,13.13
2019-03-03T16:53:41.949Z,12.70
2019-03-03T16:56:11.412Z,12.03
2019-03-03T16:58:45.046Z,9.60
2019-03-03T17:01:12.630Z,11.90
2019-03-03T17:03:40.238Z,13.47
2019-03-03T17:06:07.830Z,10.67
2019-03-03T17:08:37.490Z,11.70
2019-03-03T17:11:05.261Z,9.03
2019-03-03T17:13:34.847Z,12.03
2019-03-03T17:16:03.590Z,9.93
2019-03-03T17:18:33.663Z,10.97
2019-03-03T17:21:02.552Z,12.20
2019-03-03T17:23:33.159Z,10.60
2019-03-03T17:26:00.772Z,10.37
2019-03-03T17:28:28.302Z,8.17
2019-03-03T17:30:55.896Z,13.97
2019-03-03T17:33:23.451Z,9.70
2019-03-03T17:35:51.067Z,10.53
2019-03-03T17:38:18.638Z,9.20
2019-03-03T17:40:46.191Z,10.43
2019-03-03T17:43:13.782Z,11.07
2019-03-03T17:45:41.402Z,9.50
2019-03-03T17:48:09.062Z,14.20
2019-03-03T17:50:36.689Z,12.50
2019-03-03T17:53:04.307Z,7.97
2019-03-03T17:55:31.865Z,8.80
2019-03-03T17:58:03.739Z,9.80
2019-03-03T18:00:33.166Z,14.07
2019-03-03T18:03:00.955Z,12.40
2019-03-03T18:05:28.549Z,10.57
2019-03-03T18:07:59.316Z,8.00
2019-03-03T18:10:26.960Z,8.27
2019-03-03T18:12:54.539Z,9.23
2019-03-03T18:15:22.119Z,10.90
2019-03-03T18:17:50.656Z,7.30
2019-03-03T18:20:22.973Z,7.17
2019-03-03T18:22:50.558Z,6.93
2019-03-03T18:25:18.402Z,6.27
2019-03-03T18:27:46.709Z,6.27
2019-03-03T18:30:16.268Z,11.73
2019-03-03T18:32:44.108Z,11.00
2019-03-03T18:35:13.197Z,9.17
2019-03-03T18:37:43.261Z,6.93
2019-03-03T18:40:11.570Z,5.93
2019-03-03T18:42:39.341Z,8.83
2019-03-03T18:45:09.192Z,7.40
2019-03-03T18:47:38.305Z,9.00
2019-03-03T18:50:07.833Z,9.00
2019-03-03T18:52:35.454Z,10.93
2019-03-03T18:55:04.912Z,6.13
2019-03-03T18:57:32.483Z,9.90
2019-03-03T19:00:00.092Z,9.33
2019-03-03T19:02:27.722Z,10.47
2019-03-03T19:04:55.279Z,10.67
2019-03-03T19:07:22.912Z,8.97
2019-03-03T19:09:50.579Z,7.20
2019-03-03T19:12:18.241Z,7.03
2019-03-03T19:14:45.881Z,7.10
2019-03-03T19:17:13.499Z,8.73
2019-03-03T19:19:41.075Z,8.63
2019-03-03T19:22:08.676Z,6.70
2019-03-03T19:24:39.157Z,8.73
2019-03-03T19:27:06.787Z,8.47
2019-03-03T19:29:34.900Z,8.40
2019-03-03T19:32:05.499Z,9.80
2019-03-03T19:34:33.160Z,6.80
2019-03-03T19:37:00.806Z,9.47
2019-03-03T19:39:28.363Z,9.23
2019-03-03T19:41:55.834Z,7.90
2019-03-03T19:44:23.423Z,9.53
2019-03-03T19:46:51.017Z,9.63
2019-03-03T19:49:18.609Z,7.50
2019-03-03T19:51:46.810Z,5.73
2019-03-03T19:54:14.430Z,8.47
2019-03-03T19:56:42.009Z,7.03
2019-03-03T19:59:09.649Z,8.67
2019-03-03T20:01:37.407Z,8.33
2019-03-03T20:04:05.079Z,8.03
2019-03-03T20:06:32.691Z,9.00
2019-03-03T20:09:00.315Z,7.77
2019-03-03T20:11:27.957Z,7.90
2019-03-03T20:13:55.650Z,8.70
2019-03-03T20:16:23.287Z,8.37
2019-03-03T20:18:56.932Z,7.67
2019-03-03T20:21:24.712Z,8.60
2019-03-03T20:23:52.568Z,8.93
2019-03-03T20:26:20.967Z,9.40
2019-03-03T20:28:50.572Z,10.80
2019-03-03T20:31:18.409Z,8.30
2019-03-03T20:33:50.711Z,9.40
2019-03-03T20:36:18.330Z,6.07
2019-03-03T20:38:48.219Z,8.90
2019-03-03T20:41:15.747Z,9.17
2019-03-03T20:43:47.212Z,7.53
2019-03-03T20:46:14.736Z,4.57
2019-03-03T20:48:42.480Z,6.93
2019-03-03T20:51:10.133Z,7.43
2019-03-03T20:53:37.795Z,6.07
2019-03-03T20:56:05.552Z,7.50
2019-03-03T20:58:33.826Z,7.33
2019-03-03T21:01:01.598Z,9.17
2019-03-03T21:03:29.311Z,7.60
2019-03-03T21:05:57.264Z,7.60
2019-03-03T21:08:34.876Z,7.80
2019-03-03T21:11:02.670Z,7.07
2019-03-03T21:13:30.330Z,9.90
2019-03-03T21:15:58.093Z,7.03
2019-03-03T21:18:25.917Z,5.03
2019-03-03T21:20:53.608Z,6.50
2019-03-03T21:23:21.260Z,4.37
2019-03-03T21:25:48.914Z,5.97
2019-03-03T21:28:16.530Z,9.40
2019-03-03T21:30:44.124Z,6.10
2019-03-03T21:33:11.961Z,5.83
2019-03-03T21:35:39.548Z,7.03
2019-03-03T21:38:07.349Z,5.17
2019-03-03T21:40:34.986Z,6.17
2019-03-03T21:43:02.516Z,5.00
2019-03-03T21:45:30.150Z,4.47
2019-03-03T21:47:57.755Z,4.40
2019-03-03T21:50:25.342Z,4.63
2019-03-03T21:52:52.893Z,6.03
2019-03-03T21:55:20.557Z,4.53
2019-03-03T21:57:48.407Z,5.13
2019-03-03T22:00:29.306Z,5.77
2019-03-03T22:02:56.937Z,5.37
2019-03-03T22:05:24.563Z,5.40
2019-03-03T22:07:52.294Z,4.77
2019-03-03T22:10:22.434Z,7.67
2019-03-03T22:12:49.954Z,3.47
2019-03-03T22:15:19.328Z,3.93
2019-03-03T22:17:46.926Z,4.40
2019-03-03T22:20:14.555Z,5.47
2019-03-03T22:22:42.226Z,3.80
2019-03-03T22:25:09.841Z,6.27
2019-03-03T22:27:37.337Z,6.70
2019-03-03T22:30:05.563Z,5.70
2019-03-03T22:32:33.204Z,4.20
2019-03-03T22:35:00.774Z,5.73
2019-03-03T22:37:28.309Z,3.67
2019-03-03T22:39:55.953Z,5.43
2019-03-03T22:42:23.636Z,4.30
2019-03-03T22:44:53.337Z,4.20
2019-03-03T22:47:20.948Z,6.13
2019-03-03T22:49:49.543Z,3.40
2019-03-03T22:52:17.092Z,4.37
2019-03-03T22:54:44.754Z,6.00
2019-03-03T22:57:15.552Z,4.33
2019-03-03T22:59:43.216Z,8.33
2019-03-03T23:02:13.599Z,5.20
2019-03-03T23:05:29.016Z,3.93
2019-03-03T23:08:20.492Z,3.87
2019-03-03T23:11:35.011Z,5.13
2019-03-03T23:14:10.193Z,5.90
2019-03-03T23:17:15.480Z,3.63
2019-03-03T23:20:10.449Z,4.37
2019-03-03T23:23:34.794Z,4.70
2019-03-03T23:26:02.358Z,4.67
2019-03-03T23:28:30.779Z,5.73
2019-03-03T23:30:58.963Z,4.73
2019-03-03T23:33:27.276Z,4.10
2019-03-03T23:35:54.856Z,8.43
2019-03-03T23:38:22.753Z,4.23
2019-03-03T23:40:50.463Z,4.37
2019-03-03T23:43:18.365Z,5.10
2019-03-03T23:45:45.977Z,3.93
2019-03-03T23:48:16.843Z,5.47
2019-03-03T23:50:44.381Z,4.30
2019-03-03T23:53:11.927Z,4.37
2019-03-03T23:55:39.483Z,3.10
2019-03-03T23:58:09.552Z,4.77
